sensor_id;sensor_type;location;lat;lon;timestamp;P1;durP1;ratioP1;P2;durP2;ratioP2
35225;SDS011;21813;49.686;21.766;2022-09-27T00:01:14;23.55;;;17.63;;
35225;SDS011;21813;49.686;21.766;2022-09-27T00:03:41;24.10;;;17.55;;
35225;SDS011;21813;49.686;21.766;2022-09-27T00:06:10;24.15;;;17.48;;
35225;SDS011;21813;49.686;21.766;2022-09-27T00:08:37;24.38;;;18.50;;
35225;SDS011;21813;49.686;21.766;2022-09-27T00:11:04;24.60;;;17.63;;
35225;SDS011;21813;49.686;21.766;2022-09-27T00:13:39;25.65;;;17.63;;
35225;SDS011;21813;49.686;21.766;2022-09-27T00:16:05;28.77;;;18.92;;
35225;SDS011;21813;49.686;21.766;2022-09-27T00:18:31;28.17;;;16.83;;
35225;SDS011;21813;49.686;21.766;2022-09-27T00:21:05;24.98;;;16.33;;
35225;SDS011;21813;49.686;21.766;2022-09-27T00:23:32;23.70;;;15.75;;
35225;SDS011;21813;49.686;21.766;2022-09-27T00:25:58;22.08;;;15.88;;
35225;SDS011;21813;49.686;21.766;2022-09-27T00:28:25;21.60;;;15.25;;
35225;SDS011;21813;49.686;21.766;2022-09-27T00:30:51;22.50;;;17.17;;
35225;SDS011;21813;49.686;21.766;2022-09-27T00:33:18;34.65;;;15.75;;
35225;SDS011;21813;49.686;21.766;2022-09-27T00:35:44;22.27;;;15.40;;
35225;SDS011;21813;49.686;21.766;2022-09-27T00:38:10;23.30;;;16.45;;
35225;SDS011;21813;49.686;21.766;2022-09-27T00:40:37;29.48;;;16.52;;
35225;SDS011;21813;49.686;21.766;2022-09-27T00:43:19;27.83;;;15.70;;
35225;SDS011;21813;49.686;21.766;2022-09-27T00:45:58;25.90;;;16.17;;
35225;SDS011;21813;49.686;21.766;2022-09-27T00:48:28;52.42;;;15.75;;
35225;SDS011;21813;49.686;21.766;2022-09-27T00:50:58;71.32;;;16.13;;
35225;SDS011;21813;49.686;21.766;2022-09-27T00:53:31;34.72;;;15.40;;
35225;SDS011;21813;49.686;21.766;2022-09-27T00:56:05;70.40;;;18.08;;
35225;SDS011;21813;49.686;21.766;2022-09-27T00:58:42;101.50;;;17.75;;
35225;SDS011;21813;49.686;21.766;2022-09-27T01:01:13;56.08;;;16.40;;
35225;SDS011;21813;49.686;21.766;2022-09-27T01:06:33;66.82;;;17.85;;
35225;SDS011;21813;49.686;21.766;2022-09-27T01:08:59;61.83;;;16.48;;
35225;SDS011;21813;49.686;21.766;2022-09-27T01:14:07;45.35;;;16.75;;
35225;SDS011;21813;49.686;21.766;2022-09-27T01:16:51;49.33;;;17.58;;
35225;SDS011;21813;49.686;21.766;2022-09-27T01:19:45;28.85;;;17.15;;
35225;SDS011;21813;49.686;21.766;2022-09-27T01:30:41;27.30;;;14.75;;
35225;SDS011;21813;49.686;21.766;2022-09-27T01:41:56;27.70;;;14.90;;
35225;SDS011;21813;49.686;21.766;2022-09-27T01:47:06;71.13;;;15.35;;
35225;SDS011;21813;49.686;21.766;2022-09-27T01:50:00;65.72;;;12.90;;
35225;SDS011;21813;49.686;21.766;2022-09-27T01:52:31;85.25;;;13.65;;
35225;SDS011;21813;49.686;21.766;2022-09-27T01:55:02;82.03;;;14.02;;
35225;SDS011;21813;49.686;21.766;2022-09-27T01:57:32;104.90;;;14.00;;
35225;SDS011;21813;49.686;21.766;2022-09-27T02:00:04;135.30;;;15.00;;
35225;SDS011;21813;49.686;21.766;2022-09-27T02:02:33;123.25;;;16.75;;
35225;SDS011;21813;49.686;21.766;2022-09-27T02:05:04;103.40;;;15.10;;
35225;SDS011;21813;49.686;21.766;2022-09-27T02:07:39;107.00;;;13.32;;
35225;SDS011;21813;49.686;21.766;2022-09-27T02:10:20;158.10;;;15.93;;
35225;SDS011;21813;49.686;21.766;2022-09-27T02:12:56;65.70;;;13.45;;
35225;SDS011;21813;49.686;21.766;2022-09-27T02:15:33;57.97;;;15.07;;
35225;SDS011;21813;49.686;21.766;2022-09-27T02:18:28;116.75;;;14.73;;
35225;SDS011;21813;49.686;21.766;2022-09-27T02:20:58;117.25;;;14.75;;
35225;SDS011;21813;49.686;21.766;2022-09-27T02:23:31;82.13;;;14.18;;
35225;SDS011;21813;49.686;21.766;2022-09-27T02:26:11;94.50;;;13.60;;
35225;SDS011;21813;49.686;21.766;2022-09-27T02:28:46;60.35;;;12.98;;
35225;SDS011;21813;49.686;21.766;2022-09-27T02:31:33;67.87;;;10.50;;
35225;SDS011;21813;49.686;21.766;2022-09-27T02:34:06;98.90;;;13.35;;
35225;SDS011;21813;49.686;21.766;2022-09-27T02:36:36;89.38;;;13.18;;
35225;SDS011;21813;49.686;21.766;2022-09-27T02:39:02;85.88;;;12.35;;
35225;SDS011;21813;49.686;21.766;2022-09-27T02:41:28;95.63;;;13.55;;
35225;SDS011;21813;49.686;21.766;2022-09-27T02:43:55;89.90;;;12.38;;
35225;SDS011;21813;49.686;21.766;2022-09-27T02:46:43;95.35;;;11.77;;
35225;SDS011;21813;49.686;21.766;2022-09-27T03:01:20;90.50;;;11.90;;
35225;SDS011;21813;49.686;21.766;2022-09-27T03:06:17;72.57;;;10.10;;
35225;SDS011;21813;49.686;21.766;2022-09-27T03:08:45;66.55;;;10.90;;
35225;SDS011;21813;49.686;21.766;2022-09-27T03:11:10;85.32;;;11.57;;
35225;SDS011;21813;49.686;21.766;2022-09-27T03:13:36;76.53;;;12.15;;
35225;SDS011;21813;49.686;21.766;2022-09-27T03:16:05;48.03;;;10.60;;
35225;SDS011;21813;49.686;21.766;2022-09-27T03:18:32;70.43;;;10.40;;
35225;SDS011;21813;49.686;21.766;2022-09-27T03:20:58;52.83;;;10.65;;
35225;SDS011;21813;49.686;21.766;2022-09-27T03:23:24;51.15;;;9.25;;
35225;SDS011;21813;49.686;21.766;2022-09-27T03:25:50;49.42;;;8.90;;
35225;SDS011;21813;49.686;21.766;2022-09-27T03:28:16;39.08;;;8.18;;
35225;SDS011;21813;49.686;21.766;2022-09-27T03:30:46;36.60;;;7.97;;
35225;SDS011;21813;49.686;21.766;2022-09-27T03:33:13;32.67;;;8.57;;
35225;SDS011;21813;49.686;21.766;2022-09-27T03:35:38;31.10;;;8.95;;
35225;SDS011;21813;49.686;21.766;2022-09-27T03:38:06;48.72;;;10.88;;
35225;SDS011;21813;49.686;21.766;2022-09-27T03:40:32;26.50;;;9.18;;
35225;SDS011;21813;49.686;21.766;2022-09-27T03:42:57;30.40;;;10.25;;
35225;SDS011;21813;49.686;21.766;2022-09-27T03:45:23;41.28;;;12.07;;
35225;SDS011;21813;49.686;21.766;2022-09-27T03:47:49;28.38;;;11.00;;
35225;SDS011;21813;49.686;21.766;2022-09-27T03:50:15;26.40;;;10.30;;
35225;SDS011;21813;49.686;21.766;2022-09-27T03:52:41;28.15;;;10.05;;
35225;SDS011;21813;49.686;21.766;2022-09-27T03:55:08;23.33;;;9.18;;
35225;SDS011;21813;49.686;21.766;2022-09-27T03:57:35;30.63;;;10.55;;
35225;SDS011;21813;49.686;21.766;2022-09-27T04:00:03;21.88;;;9.75;;
35225;SDS011;21813;49.686;21.766;2022-09-27T04:02:30;49.58;;;10.32;;
35225;SDS011;21813;49.686;21.766;2022-09-27T04:04:56;23.48;;;10.35;;
35225;SDS011;21813;49.686;21.766;2022-09-27T04:07:22;32.03;;;10.80;;
35225;SDS011;21813;49.686;21.766;2022-09-27T04:09:48;46.30;;;11.25;;
35225;SDS011;21813;49.686;21.766;2022-09-27T04:12:14;35.50;;;10.88;;
35225;SDS011;21813;49.686;21.766;2022-09-27T04:14:40;58.78;;;11.50;;
35225;SDS011;21813;49.686;21.766;2022-09-27T04:17:07;14.93;;;10.43;;
35225;SDS011;21813;49.686;21.766;2022-09-27T04:19:33;25.95;;;11.02;;
35225;SDS011;21813;49.686;21.766;2022-09-27T04:21:58;24.45;;;11.23;;
35225;SDS011;21813;49.686;21.766;2022-09-27T04:24:26;39.75;;;10.70;;
35225;SDS011;21813;49.686;21.766;2022-09-27T04:26:51;41.45;;;10.38;;
35225;SDS011;21813;49.686;21.766;2022-09-27T04:29:18;36.05;;;9.45;;
35225;SDS011;21813;49.686;21.766;2022-09-27T04:31:45;50.20;;;10.35;;
35225;SDS011;21813;49.686;21.766;2022-09-27T04:34:11;61.70;;;11.20;;
35225;SDS011;21813;49.686;21.766;2022-09-27T04:36:36;48.47;;;10.38;;
35225;SDS011;21813;49.686;21.766;2022-09-27T04:39:03;66.22;;;11.13;;
35225;SDS011;21813;49.686;21.766;2022-09-27T04:41:31;78.10;;;12.95;;
35225;SDS011;21813;49.686;21.766;2022-09-27T04:43:59;85.75;;;12.10;;
35225;SDS011;21813;49.686;21.766;2022-09-27T04:46:26;70.03;;;11.60;;
35225;SDS011;21813;49.686;21.766;2022-09-27T04:48:56;84.35;;;12.77;;
35225;SDS011;21813;49.686;21.766;2022-09-27T04:51:23;78.43;;;12.02;;
35225;SDS011;21813;49.686;21.766;2022-09-27T04:53:49;63.28;;;13.43;;
35225;SDS011;21813;49.686;21.766;2022-09-27T04:56:14;43.70;;;12.90;;
35225;SDS011;21813;49.686;21.766;2022-09-27T04:58:40;53.13;;;12.88;;
35225;SDS011;21813;49.686;21.766;2022-09-27T05:01:06;50.83;;;13.48;;
35225;SDS011;21813;49.686;21.766;2022-09-27T05:03:33;47.55;;;13.38;;
35225;SDS011;21813;49.686;21.766;2022-09-27T05:05:59;83.35;;;13.05;;
35225;SDS011;21813;49.686;21.766;2022-09-27T05:08:26;68.78;;;14.38;;
35225;SDS011;21813;49.686;21.766;2022-09-27T05:10:52;72.07;;;13.38;;
35225;SDS011;21813;49.686;21.766;2022-09-27T05:13:18;62.85;;;14.07;;
35225;SDS011;21813;49.686;21.766;2022-09-27T05:15:44;40.50;;;12.75;;
35225;SDS011;21813;49.686;21.766;2022-09-27T05:18:10;49.42;;;13.82;;
35225;SDS011;21813;49.686;21.766;2022-09-27T05:20:36;30.40;;;13.73;;
35225;SDS011;21813;49.686;21.766;2022-09-27T05:23:04;34.45;;;14.07;;
35225;SDS011;21813;49.686;21.766;2022-09-27T05:25:30;49.55;;;15.00;;
35225;SDS011;21813;49.686;21.766;2022-09-27T05:27:57;38.78;;;15.50;;
35225;SDS011;21813;49.686;21.766;2022-09-27T05:30:24;42.03;;;15.57;;
35225;SDS011;21813;49.686;21.766;2022-09-27T05:32:50;38.47;;;17.33;;
35225;SDS011;21813;49.686;21.766;2022-09-27T05:35:17;35.13;;;17.00;;
35225;SDS011;21813;49.686;21.766;2022-09-27T05:37:53;50.40;;;18.60;;
35225;SDS011;21813;49.686;21.766;2022-09-27T05:40:21;45.35;;;17.15;;
35225;SDS011;21813;49.686;21.766;2022-09-27T05:42:53;44.60;;;16.45;;
35225;SDS011;21813;49.686;21.766;2022-09-27T05:45:20;29.15;;;14.20;;
35225;SDS011;21813;49.686;21.766;2022-09-27T05:47:53;33.35;;;16.08;;
35225;SDS011;21813;49.686;21.766;2022-09-27T05:50:24;24.30;;;14.68;;
35225;SDS011;21813;49.686;21.766;2022-09-27T05:52:51;22.55;;;14.13;;
35225;SDS011;21813;49.686;21.766;2022-09-27T05:55:18;21.05;;;14.00;;
35225;SDS011;21813;49.686;21.766;2022-09-27T05:57:56;20.92;;;14.98;;
35225;SDS011;21813;49.686;21.766;2022-09-27T06:00:28;20.02;;;13.93;;
35225;SDS011;21813;49.686;21.766;2022-09-27T06:03:04;22.42;;;13.35;;
35225;SDS011;21813;49.686;21.766;2022-09-27T06:05:36;33.15;;;14.68;;
35225;SDS011;21813;49.686;21.766;2022-09-27T06:08:06;27.13;;;13.48;;
35225;SDS011;21813;49.686;21.766;2022-09-27T06:10:36;22.73;;;13.93;;
35225;SDS011;21813;49.686;21.766;2022-09-27T06:13:03;21.60;;;13.45;;
35225;SDS011;21813;49.686;21.766;2022-09-27T06:15:31;24.40;;;14.15;;
35225;SDS011;21813;49.686;21.766;2022-09-27T06:18:01;23.25;;;14.32;;
35225;SDS011;21813;49.686;21.766;2022-09-27T06:20:29;20.83;;;14.35;;
35225;SDS011;21813;49.686;21.766;2022-09-27T06:23:02;19.33;;;13.30;;
35225;SDS011;21813;49.686;21.766;2022-09-27T06:25:32;20.27;;;12.88;;
35225;SDS011;21813;49.686;21.766;2022-09-27T06:27:58;23.08;;;12.70;;
35225;SDS011;21813;49.686;21.766;2022-09-27T06:30:24;15.73;;;11.02;;
35225;SDS011;21813;49.686;21.766;2022-09-27T06:32:54;15.32;;;9.85;;
35225;SDS011;21813;49.686;21.766;2022-09-27T06:35:28;12.02;;;8.70;;
35225;SDS011;21813;49.686;21.766;2022-09-27T06:37:55;11.43;;;8.15;;
35225;SDS011;21813;49.686;21.766;2022-09-27T06:40:22;11.85;;;9.23;;
35225;SDS011;21813;49.686;21.766;2022-09-27T06:42:52;9.13;;;7.70;;
35225;SDS011;21813;49.686;21.766;2022-09-27T06:45:18;8.90;;;7.72;;
35225;SDS011;21813;49.686;21.766;2022-09-27T06:47:44;9.00;;;7.72;;
35225;SDS011;21813;49.686;21.766;2022-09-27T06:50:13;9.55;;;8.13;;
35225;SDS011;21813;49.686;21.766;2022-09-27T06:52:48;10.25;;;7.03;;
35225;SDS011;21813;49.686;21.766;2022-09-27T06:55:17;7.68;;;6.85;;
35225;SDS011;21813;49.686;21.766;2022-09-27T06:57:45;7.93;;;6.50;;
35225;SDS011;21813;49.686;21.766;2022-09-27T07:00:32;6.15;;;5.50;;
35225;SDS011;21813;49.686;21.766;2022-09-27T07:02:58;7.55;;;6.05;;
35225;SDS011;21813;49.686;21.766;2022-09-27T07:05:27;8.60;;;7.13;;
35225;SDS011;21813;49.686;21.766;2022-09-27T07:07:57;9.77;;;7.47;;
35225;SDS011;21813;49.686;21.766;2022-09-27T07:10:27;10.30;;;7.22;;
35225;SDS011;21813;49.686;21.766;2022-09-27T07:12:54;10.38;;;5.30;;
35225;SDS011;21813;49.686;21.766;2022-09-27T07:15:20;8.25;;;6.28;;
35225;SDS011;21813;49.686;21.766;2022-09-27T07:17:58;8.32;;;6.22;;
35225;SDS011;21813;49.686;21.766;2022-09-27T07:23:03;10.88;;;7.18;;
35225;SDS011;21813;49.686;21.766;2022-09-27T07:25:31;10.98;;;7.72;;
35225;SDS011;21813;49.686;21.766;2022-09-27T07:28:00;12.75;;;6.57;;
35225;SDS011;21813;49.686;21.766;2022-09-27T07:30:30;9.30;;;6.70;;
35225;SDS011;21813;49.686;21.766;2022-09-27T07:32:58;8.40;;;6.50;;
35225;SDS011;21813;49.686;21.766;2022-09-27T07:35:50;9.90;;;6.32;;
35225;SDS011;21813;49.686;21.766;2022-09-27T07:38:31;8.70;;;6.68;;
35225;SDS011;21813;49.686;21.766;2022-09-27T07:41:10;11.13;;;7.20;;
35225;SDS011;21813;49.686;21.766;2022-09-27T07:43:38;10.45;;;6.70;;
35225;SDS011;21813;49.686;21.766;2022-09-27T07:46:10;8.20;;;6.55;;
35225;SDS011;21813;49.686;21.766;2022-09-27T07:48:36;11.18;;;8.30;;
35225;SDS011;21813;49.686;21.766;2022-09-27T07:51:02;8.98;;;7.18;;
35225;SDS011;21813;49.686;21.766;2022-09-27T07:53:28;14.63;;;8.40;;
35225;SDS011;21813;49.686;21.766;2022-09-27T07:55:55;10.80;;;7.82;;
35225;SDS011;21813;49.686;21.766;2022-09-27T07:58:21;14.50;;;8.40;;
35225;SDS011;21813;49.686;21.766;2022-09-27T08:00:47;11.45;;;8.80;;
35225;SDS011;21813;49.686;21.766;2022-09-27T08:03:14;11.32;;;8.00;;
35225;SDS011;21813;49.686;21.766;2022-09-27T08:06:04;10.02;;;7.85;;
35225;SDS011;21813;49.686;21.766;2022-09-27T08:08:30;11.70;;;8.05;;
35225;SDS011;21813;49.686;21.766;2022-09-27T08:10:56;11.05;;;7.82;;
35225;SDS011;21813;49.686;21.766;2022-09-27T08:13:23;9.93;;;6.95;;
35225;SDS011;21813;49.686;21.766;2022-09-27T08:15:50;10.05;;;7.80;;
35225;SDS011;21813;49.686;21.766;2022-09-27T08:18:19;8.63;;;6.88;;
35225;SDS011;21813;49.686;21.766;2022-09-27T08:21:01;10.27;;;6.97;;
35225;SDS011;21813;49.686;21.766;2022-09-27T08:23:43;11.63;;;7.65;;
35225;SDS011;21813;49.686;21.766;2022-09-27T08:26:59;12.23;;;8.20;;
35225;SDS011;21813;49.686;21.766;2022-09-27T08:29:44;11.80;;;8.70;;
35225;SDS011;21813;49.686;21.766;2022-09-27T08:32:31;12.35;;;8.18;;
35225;SDS011;21813;49.686;21.766;2022-09-27T08:38:26;8.73;;;7.10;;
35225;SDS011;21813;49.686;21.766;2022-09-27T08:40:58;10.63;;;8.88;;
35225;SDS011;21813;49.686;21.766;2022-09-27T08:43:49;12.05;;;8.57;;
35225;SDS011;21813;49.686;21.766;2022-09-27T08:52:52;9.60;;;7.60;;
35225;SDS011;21813;49.686;21.766;2022-09-27T08:55:30;11.98;;;7.57;;
35225;SDS011;21813;49.686;21.766;2022-09-27T08:58:15;10.60;;;7.82;;
35225;SDS011;21813;49.686;21.766;2022-09-27T09:00:50;9.13;;;7.75;;
35225;SDS011;21813;49.686;21.766;2022-09-27T09:03:23;9.95;;;7.30;;
35225;SDS011;21813;49.686;21.766;2022-09-27T09:22:28;13.48;;;8.57;;
35225;SDS011;21813;49.686;21.766;2022-09-27T09:25:30;9.05;;;7.18;;
35225;SDS011;21813;49.686;21.766;2022-09-27T09:33:39;12.13;;;7.15;;
35225;SDS011;21813;49.686;21.766;2022-09-27T09:36:31;7.28;;;6.20;;
35225;SDS011;21813;49.686;21.766;2022-09-27T09:39:37;7.38;;;6.35;;
35225;SDS011;21813;49.686;21.766;2022-09-27T09:44:41;9.00;;;6.88;;
35225;SDS011;21813;49.686;21.766;2022-09-27T09:47:30;12.25;;;6.85;;
35225;SDS011;21813;49.686;21.766;2022-09-27T09:50:05;8.23;;;6.90;;
35225;SDS011;21813;49.686;21.766;2022-09-27T09:53:02;8.25;;;6.65;;
35225;SDS011;21813;49.686;21.766;2022-09-27T09:55:37;8.68;;;7.22;;
35225;SDS011;21813;49.686;21.766;2022-09-27T09:58:22;7.53;;;6.38;;
35225;SDS011;21813;49.686;21.766;2022-09-27T10:00:57;8.02;;;6.68;;
35225;SDS011;21813;49.686;21.766;2022-09-27T10:03:27;8.40;;;6.20;;
35225;SDS011;21813;49.686;21.766;2022-09-27T10:05:54;7.57;;;6.50;;
35225;SDS011;21813;49.686;21.766;2022-09-27T10:08:20;8.75;;;6.63;;
35225;SDS011;21813;49.686;21.766;2022-09-27T10:10:49;7.70;;;6.32;;
35225;SDS011;21813;49.686;21.766;2022-09-27T10:13:16;8.27;;;6.88;;
35225;SDS011;21813;49.686;21.766;2022-09-27T10:15:46;7.38;;;6.50;;
35225;SDS011;21813;49.686;21.766;2022-09-27T10:18:23;16.88;;;8.05;;
35225;SDS011;21813;49.686;21.766;2022-09-27T10:20:57;9.85;;;6.57;;
35225;SDS011;21813;49.686;21.766;2022-09-27T10:26:38;7.10;;;5.63;;
35225;SDS011;21813;49.686;21.766;2022-09-27T10:31:43;6.05;;;5.00;;
35225;SDS011;21813;49.686;21.766;2022-09-27T10:34:20;8.13;;;6.28;;
35225;SDS011;21813;49.686;21.766;2022-09-27T10:39:44;7.85;;;5.95;;
35225;SDS011;21813;49.686;21.766;2022-09-27T10:45:24;13.05;;;6.68;;
35225;SDS011;21813;49.686;21.766;2022-09-27T10:47:55;7.88;;;6.75;;
35225;SDS011;21813;49.686;21.766;2022-09-27T10:50:24;8.27;;;6.38;;
35225;SDS011;21813;49.686;21.766;2022-09-27T10:55:30;7.78;;;6.28;;
35225;SDS011;21813;49.686;21.766;2022-09-27T10:58:19;7.55;;;6.30;;
35225;SDS011;21813;49.686;21.766;2022-09-27T11:00:56;7.97;;;6.38;;
35225;SDS011;21813;49.686;21.766;2022-09-27T11:03:30;7.38;;;6.13;;
35225;SDS011;21813;49.686;21.766;2022-09-27T11:06:18;7.10;;;6.32;;
35225;SDS011;21813;49.686;21.766;2022-09-27T11:08:55;7.78;;;6.50;;
35225;SDS011;21813;49.686;21.766;2022-09-27T11:11:43;9.38;;;6.28;;
35225;SDS011;21813;49.686;21.766;2022-09-27T11:14:19;7.00;;;5.45;;
35225;SDS011;21813;49.686;21.766;2022-09-27T11:20:21;9.18;;;6.40;;
35225;SDS011;21813;49.686;21.766;2022-09-27T11:28:26;8.30;;;5.72;;
35225;SDS011;21813;49.686;21.766;2022-09-27T11:42:51;7.47;;;6.00;;
35225;SDS011;21813;49.686;21.766;2022-09-27T11:48:48;10.40;;;6.65;;
35225;SDS011;21813;49.686;21.766;2022-09-27T11:57:14;10.88;;;6.68;;
35225;SDS011;21813;49.686;21.766;2022-09-27T12:06:21;9.27;;;8.20;;
35225;SDS011;21813;49.686;21.766;2022-09-27T12:09:05;10.32;;;7.82;;
35225;SDS011;21813;49.686;21.766;2022-09-27T12:14:39;9.73;;;7.57;;
35225;SDS011;21813;49.686;21.766;2022-09-27T12:17:11;9.00;;;7.53;;
35225;SDS011;21813;49.686;21.766;2022-09-27T12:19:44;9.15;;;7.22;;
35225;SDS011;21813;49.686;21.766;2022-09-27T12:22:27;11.60;;;7.75;;
35225;SDS011;21813;49.686;21.766;2022-09-27T12:24:57;7.00;;;5.13;;
35225;SDS011;21813;49.686;21.766;2022-09-27T12:27:38;8.48;;;6.68;;
35225;SDS011;21813;49.686;21.766;2022-09-27T12:30:12;8.20;;;6.35;;
35225;SDS011;21813;49.686;21.766;2022-09-27T12:36:09;7.20;;;6.45;;
35225;SDS011;21813;49.686;21.766;2022-09-27T12:41:53;8.15;;;6.88;;
35225;SDS011;21813;49.686;21.766;2022-09-27T12:44:30;8.00;;;6.80;;
35225;SDS011;21813;49.686;21.766;2022-09-27T12:49:40;7.65;;;6.40;;
35225;SDS011;21813;49.686;21.766;2022-09-27T12:52:15;9.63;;;6.22;;
35225;SDS011;21813;49.686;21.766;2022-09-27T13:07:08;8.52;;;5.30;;
35225;SDS011;21813;49.686;21.766;2022-09-27T13:12:26;7.22;;;5.50;;
35225;SDS011;21813;49.686;21.766;2022-09-27T13:17:49;7.15;;;5.75;;
35225;SDS011;21813;49.686;21.766;2022-09-27T13:25:51;6.70;;;5.65;;
35225;SDS011;21813;49.686;21.766;2022-09-27T13:30:58;7.88;;;6.20;;
35225;SDS011;21813;49.686;21.766;2022-09-27T13:36:15;10.80;;;6.00;;
35225;SDS011;21813;49.686;21.766;2022-09-27T13:47:04;6.82;;;5.50;;
35225;SDS011;21813;49.686;21.766;2022-09-27T13:49:39;8.15;;;4.95;;
35225;SDS011;21813;49.686;21.766;2022-09-27T13:52:21;7.55;;;5.75;;
35225;SDS011;21813;49.686;21.766;2022-09-27T13:54:54;5.57;;;5.07;;
35225;SDS011;21813;49.686;21.766;2022-09-27T13:57:40;6.72;;;5.60;;
35225;SDS011;21813;49.686;21.766;2022-09-27T14:00:22;5.95;;;5.35;;
35225;SDS011;21813;49.686;21.766;2022-09-27T14:05:54;4.97;;;4.47;;
35225;SDS011;21813;49.686;21.766;2022-09-27T14:14:02;6.65;;;4.18;;
35225;SDS011;21813;49.686;21.766;2022-09-27T14:16:34;5.65;;;4.72;;
35225;SDS011;21813;49.686;21.766;2022-09-27T14:19:05;6.50;;;4.82;;
35225;SDS011;21813;49.686;21.766;2022-09-27T14:21:43;5.85;;;5.25;;
35225;SDS011;21813;49.686;21.766;2022-09-27T14:24:19;7.93;;;5.82;;
35225;SDS011;21813;49.686;21.766;2022-09-27T14:29:48;6.53;;;5.25;;
35225;SDS011;21813;49.686;21.766;2022-09-27T14:32:24;5.28;;;4.78;;
35225;SDS011;21813;49.686;21.766;2022-09-27T14:38:00;14.70;;;9.98;;
35225;SDS011;21813;49.686;21.766;2022-09-27T14:40:28;11.57;;;8.65;;
35225;SDS011;21813;49.686;21.766;2022-09-27T14:43:00;7.20;;;6.13;;
35225;SDS011;21813;49.686;21.766;2022-09-27T14:56:47;5.68;;;4.30;;
35225;SDS011;21813;49.686;21.766;2022-09-27T14:59:24;6.43;;;5.03;;
35225;SDS011;21813;49.686;21.766;2022-09-27T15:01:59;6.03;;;5.00;;
35225;SDS011;21813;49.686;21.766;2022-09-27T15:04:42;8.70;;;5.40;;
35225;SDS011;21813;49.686;21.766;2022-09-27T15:07:17;7.90;;;5.82;;
35225;SDS011;21813;49.686;21.766;2022-09-27T15:09:46;8.50;;;5.00;;
35225;SDS011;21813;49.686;21.766;2022-09-27T15:12:17;8.10;;;5.15;;
35225;SDS011;21813;49.686;21.766;2022-09-27T15:14:52;8.27;;;5.43;;
35225;SDS011;21813;49.686;21.766;2022-09-27T15:17:20;4.85;;;4.35;;
35225;SDS011;21813;49.686;21.766;2022-09-27T15:19:56;4.90;;;4.40;;
35225;SDS011;21813;49.686;21.766;2022-09-27T15:25:04;5.63;;;4.97;;
35225;SDS011;21813;49.686;21.766;2022-09-27T15:27:45;5.90;;;4.82;;
35225;SDS011;21813;49.686;21.766;2022-09-27T15:30:16;5.20;;;4.40;;
35225;SDS011;21813;49.686;21.766;2022-09-27T15:32:51;5.45;;;4.90;;
35225;SDS011;21813;49.686;21.766;2022-09-27T15:35:22;11.00;;;5.50;;
35225;SDS011;21813;49.686;21.766;2022-09-27T15:43:20;5.53;;;4.63;;
35225;SDS011;21813;49.686;21.766;2022-09-27T15:45:54;6.03;;;5.43;;
35225;SDS011;21813;49.686;21.766;2022-09-27T15:48:26;7.60;;;5.55;;
35225;SDS011;21813;49.686;21.766;2022-09-27T15:50:54;8.73;;;6.15;;
35225;SDS011;21813;49.686;21.766;2022-09-27T15:56:06;11.93;;;5.80;;
35225;SDS011;21813;49.686;21.766;2022-09-27T15:58:34;7.75;;;6.53;;
35225;SDS011;21813;49.686;21.766;2022-09-27T16:01:04;10.68;;;5.50;;
35225;SDS011;21813;49.686;21.766;2022-09-27T16:03:32;8.25;;;5.65;;
35225;SDS011;21813;49.686;21.766;2022-09-27T16:05:59;8.05;;;5.65;;
35225;SDS011;21813;49.686;21.766;2022-09-27T16:08:27;7.93;;;5.15;;
35225;SDS011;21813;49.686;21.766;2022-09-27T16:10:54;8.32;;;6.45;;
35225;SDS011;21813;49.686;21.766;2022-09-27T16:13:22;15.23;;;6.13;;
35225;SDS011;21813;49.686;21.766;2022-09-27T16:16:03;12.00;;;5.90;;
35225;SDS011;21813;49.686;21.766;2022-09-27T16:18:46;9.10;;;5.80;;
35225;SDS011;21813;49.686;21.766;2022-09-27T16:21:23;11.77;;;6.60;;
35225;SDS011;21813;49.686;21.766;2022-09-27T16:23:55;8.63;;;6.05;;
35225;SDS011;21813;49.686;21.766;2022-09-27T16:26:21;8.32;;;6.10;;
35225;SDS011;21813;49.686;21.766;2022-09-27T16:28:51;9.55;;;6.03;;
35225;SDS011;21813;49.686;21.766;2022-09-27T16:36:37;7.50;;;6.00;;
35225;SDS011;21813;49.686;21.766;2022-09-27T16:39:05;8.02;;;6.50;;
35225;SDS011;21813;49.686;21.766;2022-09-27T16:41:32;10.75;;;6.85;;
35225;SDS011;21813;49.686;21.766;2022-09-27T16:44:05;12.35;;;7.47;;
35225;SDS011;21813;49.686;21.766;2022-09-27T16:46:41;10.55;;;7.20;;
35225;SDS011;21813;49.686;21.766;2022-09-27T16:49:10;9.55;;;7.25;;
35225;SDS011;21813;49.686;21.766;2022-09-27T16:51:55;11.93;;;6.30;;
35225;SDS011;21813;49.686;21.766;2022-09-27T16:54:26;9.73;;;7.63;;
35225;SDS011;21813;49.686;21.766;2022-09-27T16:56:57;10.73;;;7.90;;
35225;SDS011;21813;49.686;21.766;2022-09-27T16:59:23;12.82;;;7.88;;
35225;SDS011;21813;49.686;21.766;2022-09-27T17:01:53;12.25;;;8.05;;
35225;SDS011;21813;49.686;21.766;2022-09-27T17:04:24;11.75;;;8.15;;
35225;SDS011;21813;49.686;21.766;2022-09-27T17:06:51;12.60;;;8.30;;
35225;SDS011;21813;49.686;21.766;2022-09-27T17:09:18;15.57;;;8.38;;
35225;SDS011;21813;49.686;21.766;2022-09-27T17:11:46;12.13;;;9.02;;
35225;SDS011;21813;49.686;21.766;2022-09-27T17:14:12;13.70;;;9.02;;
35225;SDS011;21813;49.686;21.766;2022-09-27T17:16:44;12.27;;;8.52;;
35225;SDS011;21813;49.686;21.766;2022-09-27T17:19:13;11.30;;;6.90;;
35225;SDS011;21813;49.686;21.766;2022-09-27T17:21:40;13.45;;;8.50;;
35225;SDS011;21813;49.686;21.766;2022-09-27T17:24:07;10.63;;;7.55;;
35225;SDS011;21813;49.686;21.766;2022-09-27T17:26:35;13.95;;;8.73;;
35225;SDS011;21813;49.686;21.766;2022-09-27T17:29:00;15.30;;;9.48;;
35225;SDS011;21813;49.686;21.766;2022-09-27T17:31:29;10.85;;;8.10;;
35225;SDS011;21813;49.686;21.766;2022-09-27T17:33:58;12.45;;;8.30;;
35225;SDS011;21813;49.686;21.766;2022-09-27T17:36:27;12.27;;;8.15;;
35225;SDS011;21813;49.686;21.766;2022-09-27T17:38:56;11.30;;;8.50;;
35225;SDS011;21813;49.686;21.766;2022-09-27T17:41:24;13.90;;;8.68;;
35225;SDS011;21813;49.686;21.766;2022-09-27T17:43:52;12.00;;;8.43;;
35225;SDS011;21813;49.686;21.766;2022-09-27T17:46:21;15.02;;;9.30;;
35225;SDS011;21813;49.686;21.766;2022-09-27T17:48:49;11.50;;;9.00;;
35225;SDS011;21813;49.686;21.766;2022-09-27T17:51:35;13.68;;;9.73;;
35225;SDS011;21813;49.686;21.766;2022-09-27T17:54:04;12.85;;;9.90;;
35225;SDS011;21813;49.686;21.766;2022-09-27T17:56:32;8.90;;;7.07;;
35225;SDS011;21813;49.686;21.766;2022-09-27T17:59:01;8.25;;;7.20;;
35225;SDS011;21813;49.686;21.766;2022-09-27T18:01:29;13.90;;;8.70;;
35225;SDS011;21813;49.686;21.766;2022-09-27T18:03:56;12.48;;;8.43;;
35225;SDS011;21813;49.686;21.766;2022-09-27T18:06:26;13.43;;;8.77;;
35225;SDS011;21813;49.686;21.766;2022-09-27T18:08:54;13.40;;;9.02;;
35225;SDS011;21813;49.686;21.766;2022-09-27T18:11:28;14.88;;;9.35;;
35225;SDS011;21813;49.686;21.766;2022-09-27T18:16:36;12.63;;;8.77;;
35225;SDS011;21813;49.686;21.766;2022-09-27T18:19:08;11.68;;;8.15;;
35225;SDS011;21813;49.686;21.766;2022-09-27T18:21:36;15.52;;;9.93;;
35225;SDS011;21813;49.686;21.766;2022-09-27T18:24:02;14.15;;;9.68;;
35225;SDS011;21813;49.686;21.766;2022-09-27T18:26:32;13.68;;;9.57;;
35225;SDS011;21813;49.686;21.766;2022-09-27T18:29:02;12.45;;;9.55;;